Time;durP1;ratioP1;P1;durP2;ratioP2;P2;SDS_P1;SDS_P2;PMS_P1;PMS_P2;Temp;Humidity;BMP_temperature;BMP_pressure;BME280_temperature;BME280_humidity;BME280_pressure;Samples;Min_cycle;Max_cycle;Signal;HPM_P1;HPM_P2
2023/05/18 00:01:11;;;;;;;9.45;4.80;;;9.30;98.50;;;;;;5095026;28;20196;-68
2023/05/18 00:03:38;;;;;;;6.63;4.53;;;9.30;98.60;;;;;;5084768;28;20191;-67
2023/05/18 00:06:07;;;;;;;9.48;5.90;;;9.30;98.40;;;;;;5095302;28;20196;-68
2023/05/18 00:08:34;;;;;;;11.85;5.63;;;9.20;98.40;;;;;;5094871;28;20284;-67
2023/05/18 00:11:01;;;;;;;9.55;5.70;;;9.20;98.70;;;;;;5095183;28;20193;-68
2023/05/18 00:13:29;;;;;;;9.95;5.35;;;9.20;98.70;;;;;;5094713;28;20250;-68
2023/05/18 00:15:57;;;;;;;8.95;5.50;;;9.10;99.00;;;;;;5095041;28;20255;-68
2023/05/18 00:18:25;;;;;;;12.80;6.90;;;9.10;99.20;;;;;;5093966;28;20293;-68
2023/05/18 00:20:57;;;;;;;13.32;7.45;;;9.20;99.50;;;;;;5095124;28;20189;-67
2023/05/18 00:23:28;;;;;;;15.13;6.78;;;9.20;99.50;;;;;;5093657;28;20595;-68
2023/05/18 00:25:56;;;;;;;11.48;5.10;;;9.20;99.60;;;;;;5095071;28;20196;-68
2023/05/18 00:28:23;;;;;;;10.75;5.57;;;9.30;99.20;;;;;;5094670;28;20197;-68
2023/05/18 00:30:50;;;;;;;11.38;6.40;;;9.20;98.90;;;;;;5094642;28;20214;-68
2023/05/18 00:33:18;;;;;;;6.55;4.20;;;9.20;99.00;;;;;;5094460;28;20555;-68
2023/05/18 00:35:44;;;;;;;6.10;3.65;;;9.20;99.00;;;;;;5094683;28;20217;-68
2023/05/18 00:38:14;;;;;;;6.38;5.05;;;9.20;98.90;;;;;;5094421;28;20235;-68
2023/05/18 00:40:43;;;;;;;6.43;5.00;;;9.10;98.80;;;;;;5095081;28;20228;-68
2023/05/18 00:43:10;;;;;;;6.95;4.90;;;9.10;99.00;;;;;;5094343;28;20268;-68
2023/05/18 00:45:37;;;;;;;12.40;5.18;;;9.10;99.10;;;;;;5094669;28;20193;-68
2023/05/18 00:48:05;;;;;;;9.82;5.22;;;9.10;99.10;;;;;;5094029;28;20670;-68
2023/05/18 00:50:32;;;;;;;10.55;7.82;;;9.10;99.20;;;;;;5094460;28;20193;-68
2023/05/18 00:53:00;;;;;;;10.10;6.30;;;9.00;99.40;;;;;;5094030;28;20193;-68
2023/05/18 00:55:27;;;;;;;6.50;5.15;;;9.10;99.60;;;;;;5094281;28;20227;-67
2023/05/18 00:57:57;;;;;;;8.73;4.95;;;9.10;99.40;;;;;;5094252;28;20189;-68
2023/05/18 01:00:27;;;;;;;9.05;5.63;;;9.10;99.30;;;;;;5094144;28;20184;-68
2023/05/18 01:02:54;;;;;;;11.43;5.22;;;9.00;99.30;;;;;;5093466;28;20280;-68
2023/05/18 01:05:22;;;;;;;7.05;4.70;;;9.00;99.20;;;;;;5093817;28;20192;-68
2023/05/18 01:07:50;;;;;;;7.15;5.63;;;9.00;99.40;;;;;;5093741;28;20692;-68
2023/05/18 01:10:19;;;;;;;5.85;4.93;;;9.00;99.40;;;;;;5094229;28;20185;-68
2023/05/18 01:12:51;;;;;;;11.13;5.20;;;9.00;99.50;;;;;;5093779;28;20197;-68
2023/05/18 01:15:23;;;;;;;7.93;4.03;;;9.00;99.40;;;;;;5094143;28;20271;-68
2023/05/18 01:18:03;;;;;;;7.70;4.90;;;9.00;99.40;;;;;;5093083;28;20214;-68
2023/05/18 01:20:36;;;;;;;10.73;5.93;;;9.00;99.40;;;;;;5093929;28;20284;-68
2023/05/18 01:23:47;;;;;;;8.57;5.93;;;8.90;99.40;;;;;;5093838;28;20558;-68
2023/05/18 01:26:23;;;;;;;7.55;4.78;;;9.00;99.60;;;;;;5093698;28;20224;-68
2023/05/18 01:28:51;;;;;;;6.60;4.53;;;8.90;99.50;;;;;;5092974;28;20268;-68
2023/05/18 01:31:19;;;;;;;7.68;5.68;;;8.90;99.70;;;;;;5093749;28;20246;-68
2023/05/18 01:33:47;;;;;;;7.97;5.20;;;8.90;99.60;;;;;;5093180;28;20547;-68
2023/05/18 01:36:15;;;;;;;11.82;5.40;;;8.90;99.70;;;;;;5093627;28;20209;-68
2023/05/18 01:38:44;;;;;;;15.98;5.80;;;8.90;99.70;;;;;;5093072;28;20193;-68
2023/05/18 01:41:20;;;;;;;6.78;4.95;;;8.90;99.70;;;;;;5093434;28;20278;-68
2023/05/18 01:43:53;;;;;;;5.00;4.18;;;8.80;99.90;;;;;;5093181;28;20224;-68
2023/05/18 01:46:41;;;;;;;7.30;5.25;;;8.80;99.90;;;;;;5093417;28;20280;-68
2023/05/18 01:49:13;;;;;;;5.72;4.45;;;8.80;99.90;;;;;;5092740;28;20247;-68
2023/05/18 01:51:45;;;;;;;7.72;5.07;;;8.80;99.90;;;;;;5092947;28;20185;-68
2023/05/18 01:54:16;;;;;;;8.07;4.85;;;8.90;99.90;;;;;;5093333;28;20227;-67
2023/05/18 01:56:47;;;;;;;7.68;4.65;;;8.90;99.90;;;;;;5092659;28;20709;-68
2023/05/18 01:59:15;;;;;;;8.82;4.57;;;8.90;99.90;;;;;;5093261;28;20188;-68
2023/05/18 02:01:43;;;;;;;16.85;5.25;;;8.90;99.90;;;;;;5092566;28;20189;-68
2023/05/18 02:04:11;;;;;;;6.70;4.68;;;8.90;99.90;;;;;;5093259;28;20185;-68
2023/05/18 02:06:38;;;;;;;5.60;3.70;;;8.90;99.90;;;;;;5092731;28;20184;-68
2023/05/18 02:09:06;;;;;;;5.30;4.00;;;9.00;99.90;;;;;;5092940;28;20204;-68
2023/05/18 02:11:33;;;;;;;6.18;4.25;;;9.00;99.90;;;;;;5092265;28;20349;-68
2023/05/18 02:14:01;;;;;;;6.10;4.35;;;8.90;99.90;;;;;;5092857;28;20185;-68
2023/05/18 02:16:33;;;;;;;8.20;4.90;;;9.00;99.90;;;;;;5091713;28;20219;-68
2023/05/18 02:19:02;;;;;;;5.50;3.97;;;8.90;99.90;;;;;;5092892;28;20203;-68
2023/05/18 02:21:29;;;;;;;7.38;4.55;;;9.00;99.90;;;;;;5092666;28;20213;-68
2023/05/18 02:23:56;;;;;;;11.68;5.65;;;8.90;99.90;;;;;;5090444;28;20567;-68
2023/05/18 02:26:23;;;;;;;7.13;5.05;;;8.90;99.90;;;;;;5092318;28;20232;-68
2023/05/18 02:28:52;;;;;;;8.35;5.13;;;8.90;99.90;;;;;;5092168;28;20238;-68
2023/05/18 02:31:21;;;;;;;6.22;4.50;;;8.90;99.90;;;;;;5091556;28;20185;-67
2023/05/18 02:33:48;;;;;;;11.82;4.65;;;8.90;99.90;;;;;;5092348;28;20293;-67
2023/05/18 02:36:17;;;;;;;6.40;4.47;;;9.00;99.90;;;;;;5092609;28;20764;-68
2023/05/18 02:38:47;;;;;;;5.78;4.22;;;9.00;99.90;;;;;;5092348;28;20275;-68
2023/05/18 02:41:15;;;;;;;8.27;4.60;;;9.00;99.90;;;;;;5092078;28;20639;-68
2023/05/18 02:43:42;;;;;;;9.27;5.50;;;9.00;99.90;;;;;;5092543;28;20203;-68
2023/05/18 02:46:09;;;;;;;9.38;5.80;;;9.00;99.90;;;;;;5091739;28;20189;-68
2023/05/18 02:48:38;;;;;;;11.20;4.43;;;9.10;99.90;;;;;;5092628;28;20239;-67
2023/05/18 02:51:07;;;;;;;8.20;5.45;;;9.00;99.70;;;;;;5091631;28;20235;-68
2023/05/18 02:53:34;;;;;;;5.55;4.03;;;9.10;99.30;;;;;;5092615;28;20246;-68
2023/05/18 02:56:02;;;;;;;8.55;4.50;;;9.10;98.80;;;;;;5091539;28;20193;-68
2023/05/18 02:58:29;;;;;;;7.57;4.60;;;9.10;98.70;;;;;;5092153;28;20271;-68
2023/05/18 03:00:58;;;;;;;8.52;4.78;;;9.10;98.60;;;;;;5092360;28;20333;-68
2023/05/18 03:03:25;;;;;;;11.63;5.47;;;9.00;98.20;;;;;;5091693;28;20181;-68
2023/05/18 03:05:54;;;;;;;9.05;4.82;;;9.00;97.90;;;;;;5092217;28;20189;-68
2023/05/18 03:08:22;;;;;;;8.15;5.35;;;9.00;97.90;;;;;;5091784;28;20272;-68
2023/05/18 03:10:50;;;;;;;10.38;5.13;;;9.00;98.60;;;;;;5092466;28;20220;-68
2023/05/18 03:13:17;;;;;;;6.32;4.70;;;9.00;98.20;;;;;;5091557;28;20188;-68
2023/05/18 03:15:48;;;;;;;9.73;4.90;;;9.00;98.10;;;;;;5092266;28;20544;-68
2023/05/18 03:18:17;;;;;;;9.18;5.57;;;9.00;98.20;;;;;;5092237;28;20634;-67
2023/05/18 03:20:46;;;;;;;12.07;4.85;;;9.00;98.20;;;;;;5092244;28;20188;-68
2023/05/18 03:23:15;;;;;;;7.53;4.43;;;8.90;98.30;;;;;;5091719;28;20550;-67
2023/05/18 03:25:42;;;;;;;8.15;5.70;;;8.90;98.50;;;;;;5092376;28;20535;-68
2023/05/18 03:28:09;;;;;;;7.13;5.03;;;8.90;98.50;;;;;;5095816;28;20193;-67
2023/05/18 03:30:38;;;;;;;10.93;5.05;;;8.90;98.20;;;;;;5096249;28;20189;-67
2023/05/18 03:33:07;;;;;;;9.23;5.30;;;8.90;98.00;;;;;;5095226;28;20611;-68
2023/05/18 03:35:34;;;;;;;11.25;5.70;;;8.90;98.10;;;;;;5076076;28;20635;-68
2023/05/18 03:38:01;;;;;;;11.68;6.22;;;8.90;98.20;;;;;;5076798;28;20229;-68
2023/05/18 03:40:34;;;;;;;12.90;5.05;;;8.90;98.30;;;;;;5095953;28;20193;-68
2023/05/18 03:43:01;;;;;;;6.40;5.05;;;8.90;98.30;;;;;;5095770;28;20200;-68
2023/05/18 03:45:29;;;;;;;8.85;5.18;;;8.90;98.20;;;;;;5095912;28;20197;-67
2023/05/18 03:47:56;;;;;;;9.60;5.90;;;9.00;98.50;;;;;;5095079;28;20197;-68
2023/05/18 03:50:23;;;;;;;10.05;4.57;;;9.00;98.50;;;;;;5095660;28;20245;-68
2023/05/18 03:52:54;;;;;;;11.32;5.45;;;9.10;98.40;;;;;;5094361;28;20662;-67
2023/05/18 03:55:21;;;;;;;13.85;5.90;;;9.10;98.10;;;;;;5095608;28;20200;-68
2023/05/18 03:57:50;;;;;;;13.43;4.82;;;9.10;98.10;;;;;;5095129;28;20205;-68
2023/05/18 04:00:17;;;;;;;6.80;5.30;;;9.10;98.00;;;;;;5094519;28;20245;-68
2023/05/18 04:02:45;;;;;;;9.40;5.93;;;9.20;98.10;;;;;;5094998;28;20201;-68
2023/05/18 04:05:12;;;;;;;10.90;5.47;;;9.20;98.40;;;;;;5094931;28;20193;-68
2023/05/18 04:07:45;;;;;;;11.70;5.40;;;9.20;98.20;;;;;;5094796;28;20632;-68
2023/05/18 04:10:13;;;;;;;7.88;5.40;;;9.30;98.30;;;;;;5095213;28;20184;-68
2023/05/18 04:12:40;;;;;;;7.70;5.00;;;9.30;98.70;;;;;;5095247;28;20197;-67
2023/05/18 04:15:13;;;;;;;8.85;5.63;;;9.30;98.70;;;;;;5094598;28;20223;-68
2023/05/18 04:17:45;;;;;;;12.23;6.97;;;9.30;98.80;;;;;;5094832;28;20307;-68
2023/05/18 04:20:15;;;;;;;13.77;5.88;;;9.20;98.60;;;;;;5094391;28;20189;-68
2023/05/18 04:22:45;;;;;;;8.65;6.10;;;9.20;98.40;;;;;;5094968;28;20204;-68
2023/05/18 04:25:13;;;;;;;8.45;5.75;;;9.10;98.40;;;;;;5094823;28;20193;-68
2023/05/18 04:27:40;;;;;;;15.30;5.80;;;9.10;98.60;;;;;;5094999;28;20267;-68
2023/05/18 04:30:10;;;;;;;8.80;5.10;;;9.10;98.70;;;;;;5094822;28;20193;-68
2023/05/18 04:32:37;;;;;;;10.43;6.68;;;9.00;98.80;;;;;;5095045;28;20200;-69
2023/05/18 04:35:08;;;;;;;9.30;5.75;;;9.00;98.80;;;;;;5094699;28;20234;-68
2023/05/18 04:37:41;;;;;;;9.63;5.78;;;9.00;98.80;;;;;;5093621;28;20219;-68
2023/05/18 04:40:12;;;;;;;9.05;6.47;;;9.00;98.90;;;;;;5094449;28;20606;-68
2023/05/18 04:42:43;;;;;;;7.47;5.55;;;9.10;99.10;;;;;;5094755;28;20189;-67
2023/05/18 04:45:14;;;;;;;12.55;6.90;;;9.10;99.30;;;;;;5094683;28;20220;-67
2023/05/18 04:47:45;;;;;;;9.10;6.65;;;9.10;99.30;;;;;;5094366;28;20189;-68
2023/05/18 04:50:13;;;;;;;10.98;7.13;;;9.10;99.40;;;;;;5094823;28;20189;-67
2023/05/18 04:52:46;;;;;;;10.18;7.47;;;9.20;99.50;;;;;;5094363;28;20189;-67
2023/05/18 04:55:13;;;;;;;13.35;6.85;;;9.20;99.50;;;;;;5094562;28;20239;-68
2023/05/18 04:57:41;;;;;;;11.32;7.18;;;9.30;99.50;;;;;;5093889;28;20627;-68
2023/05/18 05:00:11;;;;;;;10.05;6.72;;;9.40;99.70;;;;;;5094517;28;20199;-68
2023/05/18 05:02:40;;;;;;;11.27;7.00;;;9.40;99.70;;;;;;5094218;28;20725;-67
2023/05/18 05:05:12;;;;;;;13.65;8.10;;;9.50;99.70;;;;;;5093946;28;20298;-68
2023/05/18 05:07:40;;;;;;;9.95;6.53;;;9.50;99.60;;;;;;5093826;28;20220;-68
2023/05/18 05:10:13;;;;;;;13.40;5.95;;;9.60;99.60;;;;;;5094087;28;20189;-68
2023/05/18 05:12:41;;;;;;;9.15;6.82;;;9.60;99.70;;;;;;5093039;28;20215;-68
2023/05/18 05:15:09;;;;;;;10.77;6.25;;;9.70;99.70;;;;;;5094028;28;20223;-68
2023/05/18 05:17:38;;;;;;;10.88;8.32;;;9.80;99.60;;;;;;5092892;28;20620;-68
2023/05/18 05:20:08;;;;;;;9.95;6.82;;;9.80;99.40;;;;;;5093974;28;20185;-68
2023/05/18 05:22:36;;;;;;;9.40;7.20;;;9.90;99.30;;;;;;5093306;28;20192;-68
2023/05/18 05:25:02;;;;;;;11.63;6.90;;;10.00;98.50;;;;;;5093928;28;20189;-67
2023/05/18 05:27:31;;;;;;;8.98;7.20;;;10.10;97.20;;;;;;5093517;28;20208;-68
2023/05/18 05:30:00;;;;;;;8.30;5.63;;;10.20;96.90;;;;;;5093898;28;20195;-68
2023/05/18 05:32:28;;;;;;;10.30;6.18;;;10.30;96.40;;;;;;5093135;28;20197;-68
2023/05/18 05:34:55;;;;;;;7.88;5.68;;;10.30;96.20;;;;;;5093710;28;20201;-68
2023/05/18 05:37:24;;;;;;;8.23;5.65;;;10.30;96.20;;;;;;5092933;28;20575;-68
2023/05/18 05:39:53;;;;;;;7.18;5.22;;;10.30;96.30;;;;;;5093256;28;20200;-69
2023/05/18 05:42:20;;;;;;;8.40;5.90;;;10.30;96.50;;;;;;5093682;28;20227;-68
2023/05/18 05:44:47;;;;;;;10.15;5.95;;;10.50;96.20;;;;;;5093357;28;20186;-68
2023/05/18 05:47:15;;;;;;;9.20;6.22;;;10.50;96.70;;;;;;5092654;28;20193;-68
2023/05/18 05:49:42;;;;;;;6.65;4.95;;;10.50;96.70;;;;;;5092734;28;20181;-68
2023/05/18 05:52:10;;;;;;;7.55;5.53;;;10.50;96.20;;;;;;5093340;28;20189;-68
2023/05/18 05:54:40;;;;;;;10.13;6.22;;;10.60;95.70;;;;;;5092867;28;20185;-68
2023/05/18 05:57:07;;;;;;;9.93;5.32;;;10.60;95.60;;;;;;5092901;28;20228;-68
2023/05/18 05:59:35;;;;;;;8.82;5.85;;;10.70;95.30;;;;;;5092626;28;20185;-68
2023/05/18 06:02:02;;;;;;;9.20;5.03;;;10.80;95.00;;;;;;5092408;28;20203;-68
2023/05/18 06:04:29;;;;;;;10.15;5.78;;;10.90;94.10;;;;;;5093092;28;20203;-68
2023/05/18 06:06:56;;;;;;;6.05;4.47;;;10.80;92.90;;;;;;5092578;28;20585;-68
2023/05/18 06:09:23;;;;;;;6.60;3.83;;;10.80;93.30;;;;;;5092803;28;20246;-68
2023/05/18 06:11:52;;;;;;;9.93;5.13;;;10.80;92.80;;;;;;5092368;28;20636;-68
2023/05/18 06:14:20;;;;;;;12.77;4.72;;;10.80;93.30;;;;;;5092179;28;20213;-68
2023/05/18 06:16:48;;;;;;;5.80;3.90;;;10.90;92.50;;;;;;5092977;28;20597;-68
2023/05/18 06:19:15;;;;;;;9.43;4.57;;;11.00;91.40;;;;;;5092650;28;20580;-68
2023/05/18 06:21:44;;;;;;;5.05;3.90;;;11.00;91.20;;;;;;5092799;28;20189;-68
2023/05/18 06:24:12;;;;;;;7.30;4.10;;;11.10;90.50;;;;;;5092091;28;20550;-68
2023/05/18 06:26:40;;;;;;;8.40;3.85;;;11.10;90.20;;;;;;5092849;28;20189;-68
2023/05/18 06:29:08;;;;;;;7.53;4.10;;;11.20;89.50;;;;;;5092302;28;20196;-68
2023/05/18 06:31:35;;;;;;;9.40;4.45;;;11.30;88.40;;;;;;5091971;28;20204;-68
2023/05/18 06:34:02;;;;;;;5.00;3.50;;;11.30;89.40;;;;;;5092761;28;20189;-68
2023/05/18 06:36:30;;;;;;;5.88;3.45;;;11.30;90.00;;;;;;5092295;28;20189;-68
2023/05/18 06:38:57;;;;;;;7.13;3.53;;;11.30;90.00;;;;;;5092823;28;20220;-68
2023/05/18 06:41:24;;;;;;;9.77;3.87;;;11.50;87.50;;;;;;5091992;28;20437;-68
2023/05/18 06:43:51;;;;;;;4.60;3.27;;;11.50;86.20;;;;;;5092615;28;20944;-68
2023/05/18 06:46:26;;;;;;;9.63;3.33;;;11.60;82.60;;;;;;5092218;28;20439;-68
2023/05/18 06:48:54;;;;;;;8.40;4.78;;;11.70;84.10;;;;;;5092806;28;20443;-68
2023/05/18 06:51:21;;;;;;;9.23;3.67;;;11.80;84.70;;;;;;5092043;28;20532;-68
2023/05/18 06:53:52;;;;;;;11.20;3.60;;;11.80;83.70;;;;;;5092338;28;20435;-68
2023/05/18 06:56:20;;;;;;;6.47;3.40;;;11.90;83.00;;;;;;5087027;28;20447;-68
2023/05/18 06:58:47;;;;;;;6.83;3.87;;;12.00;82.20;;;;;;5082109;28;20690;-67
2023/05/18 07:01:16;;;;;;;8.83;3.97;;;12.10;79.00;;;;;;5086298;28;20498;-68
2023/05/18 07:03:44;;;;;;;6.27;3.67;;;12.20;79.80;;;;;;5079000;28;20435;-68
2023/05/18 07:06:12;;;;;;;5.77;3.23;;;12.20;78.70;;;;;;5093484;28;20431;-68
2023/05/18 07:08:39;;;;;;;13.10;3.83;;;12.30;76.80;;;;;;5092803;28;20442;-68
2023/05/18 07:11:06;;;;;;;9.23;4.30;;;12.30;78.40;;;;;;5093691;28;20445;-68
2023/05/18 07:13:36;;;;;;;9.00;3.97;;;12.40;78.10;;;;;;5092970;28;20443;-68
2023/05/18 07:16:04;;;;;;;12.63;4.80;;;12.60;77.30;;;;;;5093652;28;20467;-68
2023/05/18 07:18:32;;;;;;;4.90;3.07;;;12.70;77.40;;;;;;5093048;28;20479;-68
2023/05/18 07:21:01;;;;;;;8.53;3.40;;;12.80;76.40;;;;;;5092544;28;20431;-68
2023/05/18 07:23:28;;;;;;;6.57;3.47;;;12.80;76.30;;;;;;5087284;28;20435;-68
2023/05/18 07:25:55;;;;;;;7.00;3.40;;;12.80;73.80;;;;;;5075472;28;20519;-68
2023/05/18 07:28:22;;;;;;;6.50;3.40;;;12.90;75.10;;;;;;5088113;28;20443;-68
2023/05/18 07:30:51;;;;;;;5.27;3.07;;;13.00;74.70;;;;;;5091396;28;20439;-68
2023/05/18 07:33:17;;;;;;;7.80;2.90;;;13.10;75.50;;;;;;5085146;28;20789;-68
2023/05/18 07:35:47;;;;;;;11.40;3.47;;;13.20;75.40;;;;;;5092308;28;20439;-68
2023/05/18 07:38:16;;;;;;;5.33;3.27;;;13.40;75.40;;;;;;5088043;28;20571;-69
2023/05/18 07:40:43;;;;;;;7.77;2.53;;;13.50;72.90;;;;;;5089931;28;20480;-68
2023/05/18 07:43:11;;;;;;;4.57;2.87;;;13.50;71.20;;;;;;5088678;28;20436;-69
2023/05/18 07:45:38;;;;;;;7.13;2.53;;;13.60;69.80;;;;;;5077072;28;20984;-69
2023/05/18 07:48:09;;;;;;;10.30;2.90;;;13.70;69.10;;;;;;5077749;28;20438;-69
2023/05/18 07:50:38;;;;;;;4.43;2.70;;;13.80;69.00;;;;;;5093068;28;20475;-69
2023/05/18 07:53:05;;;;;;;5.80;2.80;;;13.90;72.30;;;;;;5092732;28;20773;-68
2023/05/18 07:55:33;;;;;;;7.80;2.60;;;14.00;69.40;;;;;;5092556;28;20427;-68
2023/05/18 07:58:00;;;;;;;4.97;2.37;;;14.10;69.10;;;;;;5080987;28;20545;-68
2023/05/18 08:00:28;;;;;;;4.57;2.60;;;14.20;69.40;;;;;;5085288;28;20517;-69
2023/05/18 08:02:55;;;;;;;7.37;3.67;;;14.20;69.40;;;;;;5092003;28;20431;-68
2023/05/18 08:05:22;;;;;;;5.80;2.50;;;14.30;67.60;;;;;;5072905;28;20444;-69
2023/05/18 08:07:50;;;;;;;5.87;3.00;;;14.50;65.30;;;;;;5072439;28;20436;-68
2023/05/18 08:10:17;;;;;;;5.00;2.57;;;14.40;65.70;;;;;;5074093;28;21072;-69
2023/05/18 08:12:45;;;;;;;4.03;2.80;;;14.50;63.90;;;;;;5075315;28;20619;-68
2023/05/18 08:15:12;;;;;;;6.37;3.60;;;14.60;66.70;;;;;;5073794;28;20470;-69
2023/05/18 08:17:39;;;;;;;6.23;3.33;;;14.70;66.90;;;;;;5090882;28;20439;-69
2023/05/18 08:20:09;;;;;;;5.27;3.50;;;14.80;64.80;;;;;;5090882;28;20474;-68
2023/05/18 08:22:38;;;;;;;7.37;3.00;;;14.80;64.30;;;;;;5091246;28;20926;-69
2023/05/18 08:25:05;;;;;;;7.47;3.30;;;14.90;65.80;;;;;;5091504;28;20435;-69
2023/05/18 08:27:32;;;;;;;6.87;3.63;;;15.00;63.70;;;;;;5089569;28;21551;-69
2023/05/18 08:30:01;;;;;;;6.60;3.00;;;15.10;63.10;;;;;;5075502;28;20471;-68
2023/05/18 08:32:28;;;;;;;5.27;2.53;;;15.10;63.10;;;;;;5073033;28;20498;-68
2023/05/18 08:34:55;;;;;;;14.70;4.07;;;15.30;63.60;;;;;;5080127;28;20483;-68
2023/05/18 08:37:27;;;;;;;6.97;3.30;;;15.40;62.10;;;;;;5072930;28;21230;-69
2023/05/18 08:39:55;;;;;;;6.40;2.90;;;15.40;64.10;;;;;;5073257;28;20479;-69
2023/05/18 08:42:26;;;;;;;9.37;3.30;;;15.50;61.40;;;;;;5072871;28;20443;-69
2023/05/18 08:45:11;;;;;;;9.90;4.30;;;15.60;62.60;;;;;;5073453;28;20440;-68
2023/05/18 08:47:40;;;;;;;4.60;2.80;;;15.60;59.00;;;;;;5073358;28;20436;-69
2023/05/18 08:50:12;;;;;;;5.57;2.30;;;15.70;59.80;;;;;;5073242;28;20493;-69
2023/05/18 08:52:47;;;;;;;8.07;2.70;;;15.70;58.80;;;;;;5080880;28;20486;-69
2023/05/18 08:55:16;;;;;;;5.80;3.50;;;15.70;58.10;;;;;;5079832;28;20439;-68
2023/05/18 08:57:45;;;;;;;6.30;2.83;;;15.90;57.80;;;;;;5080928;28;20455;-69
2023/05/18 09:00:16;;;;;;;5.73;2.73;;;15.90;58.00;;;;;;5081266;28;20492;-69
2023/05/18 09:02:43;;;;;;;8.77;3.40;;;16.00;58.00;;;;;;5078495;28;21129;-70
2023/05/18 09:05:15;;;;;;;4.57;2.67;;;16.10;56.80;;;;;;5082473;28;20436;-69
2023/05/18 09:07:43;;;;;;;7.90;3.70;;;16.10;56.50;;;;;;5083068;28;21008;-69
2023/05/18 09:10:12;;;;;;;6.10;3.00;;;16.20;58.00;;;;;;5081232;28;20457;-69
2023/05/18 09:12:41;;;;;;;7.60;2.53;;;16.30;58.00;;;;;;5086263;28;20930;-69
2023/05/18 09:15:10;;;;;;;5.07;2.40;;;16.40;56.30;;;;;;5082124;28;20479;-69
2023/05/18 09:17:39;;;;;;;7.47;3.07;;;16.40;57.90;;;;;;5082588;28;20968;-69
2023/05/18 09:20:08;;;;;;;7.87;3.13;;;16.50;57.50;;;;;;5083322;28;20491;-68
2023/05/18 09:22:39;;;;;;;5.37;2.20;;;16.70;58.30;;;;;;5081925;28;20464;-69
2023/05/18 09:25:08;;;;;;;5.07;2.70;;;16.80;56.90;;;;;;5083180;28;20863;-68
2023/05/18 09:27:36;;;;;;;5.77;2.50;;;17.00;55.30;;;;;;5083777;28;20455;-69
2023/05/18 09:30:04;;;;;;;7.30;2.70;;;17.10;54.90;;;;;;5082789;28;20443;-69
2023/05/18 09:32:36;;;;;;;6.97;2.70;;;17.20;56.00;;;;;;5082395;28;20448;-69
2023/05/18 09:35:08;;;;;;;7.47;3.63;;;17.40;54.00;;;;;;5078621;28;21084;-69
2023/05/18 09:37:36;;;;;;;5.03;2.30;;;17.60;54.40;;;;;;5081381;28;20476;-70
2023/05/18 09:40:05;;;;;;;3.47;2.60;;;17.80;55.10;;;;;;5081376;28;21011;-69
2023/05/18 09:42:39;;;;;;;7.87;2.60;;;18.10;53.90;;;;;;5078334;28;20447;-69
2023/05/18 09:45:17;;;;;;;4.43;2.23;;;18.40;50.90;;;;;;5082036;28;20933;-68
2023/05/18 09:47:44;;;;;;;6.30;2.10;;;18.60;50.70;;;;;;5080737;28;20447;-69
2023/05/18 09:50:13;;;;;;;5.10;2.37;;;18.90;51.60;;;;;;5079905;28;20439;-69
2023/05/18 09:52:42;;;;;;;7.70;2.37;;;19.00;53.30;;;;;;5078612;28;20933;-69
2023/05/18 09:55:10;;;;;;;8.40;2.67;;;19.10;50.10;;;;;;5082666;28;20439;-69
2023/05/18 09:57:40;;;;;;;6.50;2.37;;;19.20;48.40;;;;;;5082758;28;20439;-69
2023/05/18 10:00:11;;;;;;;6.27;2.50;;;19.50;50.40;;;;;;5082954;28;20523;-70
2023/05/18 10:02:40;;;;;;;3.97;2.43;;;19.70;47.30;;;;;;5078698;28;20483;-69
2023/05/18 10:05:18;;;;;;;7.17;3.10;;;19.90;47.10;;;;;;5083267;28;20495;-69
2023/05/18 10:07:46;;;;;;;6.83;2.63;;;20.00;45.10;;;;;;5080996;28;20959;-69
2023/05/18 10:10:13;;;;;;;5.10;2.23;;;20.10;45.30;;;;;;5082751;28;20502;-69
2023/05/18 10:12:40;;;;;;;4.80;2.40;;;20.00;44.40;;;;;;5085320;28;20960;-69
2023/05/18 10:15:15;;;;;;;4.77;2.73;;;19.70;44.20;;;;;;5083317;28;20505;-69
2023/05/18 10:17:44;;;;;;;3.73;1.90;;;19.60;45.90;;;;;;5085162;28;20439;-69
2023/05/18 10:20:23;;;;;;;4.20;2.03;;;19.50;44.60;;;;;;5082764;28;20977;-69
2023/05/18 10:22:50;;;;;;;3.20;2.20;;;19.10;45.40;;;;;;5084779;28;20482;-69
2023/05/18 10:25:20;;;;;;;4.17;2.50;;;18.90;46.20;;;;;;5080632;28;20443;-69
2023/05/18 10:27:49;;;;;;;4.77;2.50;;;18.80;45.60;;;;;;5080396;28;20542;-69
2023/05/18 10:30:17;;;;;;;5.37;3.10;;;18.60;46.00;;;;;;5083389;28;20445;-69
2023/05/18 10:32:45;;;;;;;4.80;2.53;;;18.40;47.40;;;;;;5079315;28;20452;-69
2023/05/18 10:35:30;;;;;;;9.93;2.90;;;18.30;47.20;;;;;;5084065;28;20973;-69
2023/05/18 10:38:02;;;;;;;6.90;3.50;;;18.30;49.20;;;;;;5076573;28;20440;-69
2023/05/18 10:40:29;;;;;;;7.83;3.23;;;18.50;47.50;;;;;;5078945;28;20501;-69
2023/05/18 10:42:58;;;;;;;5.00;3.10;;;18.70;46.80;;;;;;5080895;28;20482;-69
2023/05/18 10:45:26;;;;;;;4.80;3.10;;;18.70;46.50;;;;;;5079715;28;20530;-68
2023/05/18 10:47:54;;;;;;;6.00;3.00;;;18.70;47.10;;;;;;5081786;28;20524;-68
2023/05/18 10:50:23;;;;;;;5.23;2.80;;;18.80;47.30;;;;;;5082011;28;20435;-69
2023/05/18 10:52:53;;;;;;;6.00;2.50;;;19.00;47.10;;;;;;5080569;28;20445;-69
2023/05/18 10:55:20;;;;;;;8.43;3.47;;;19.30;47.50;;;;;;5082415;28;20447;-67
2023/05/18 10:57:54;;;;;;;5.63;3.00;;;19.60;45.60;;;;;;5080299;28;20454;-68
2023/05/18 11:00:22;;;;;;;6.43;3.73;;;19.60;44.70;;;;;;5079657;28;20932;-68
2023/05/18 11:02:52;;;;;;;6.60;2.40;;;19.60;44.60;;;;;;5081802;28;20444;-67
2023/05/18 11:05:26;;;;;;;5.50;2.90;;;19.80;44.60;;;;;;5083144;28;20449;-68
2023/05/18 11:08:02;;;;;;;5.20;2.40;;;20.00;44.80;;;;;;5080369;28;20458;-68
2023/05/18 11:10:39;;;;;;;5.03;2.40;;;20.20;44.10;;;;;;5083425;28;21311;-68
2023/05/18 11:13:22;;;;;;;7.47;3.30;;;20.20;44.10;;;;;;5085502;28;20531;-68
2023/05/18 11:16:08;;;;;;;5.53;3.03;;;20.20;43.20;;;;;;5078921;28;20474;-68
2023/05/18 11:18:44;;;;;;;5.00;2.80;;;20.00;43.40;;;;;;5079430;28;20624;-68
2023/05/18 11:21:34;;;;;;;4.53;2.60;;;20.00;42.90;;;;;;5087175;28;20911;-68
2023/05/18 11:24:23;;;;;;;5.50;2.80;;;19.80;42.40;;;;;;5080782;28;20448;-68
2023/05/18 11:26:52;;;;;;;6.43;2.90;;;19.70;43.40;;;;;;5079322;28;20435;-68
2023/05/18 11:29:30;;;;;;;9.37;3.57;;;19.80;44.40;;;;;;5079369;28;20519;-68
2023/05/18 11:31:57;;;;;;;5.20;2.73;;;19.80;43.30;;;;;;5086529;28;20814;-67
2023/05/18 11:34:58;;;;;;;6.20;2.60;;;19.80;43.20;;;;;;5077641;28;20471;-68
2023/05/18 11:37:50;;;;;;;5.50;2.50;;;20.00;43.80;;;;;;5068937;28;21018;-68
2023/05/18 11:40:46;;;;;;;4.27;2.90;;;20.20;43.30;;;;;;5082676;28;20470;-68
2023/05/18 11:43:20;;;;;;;5.40;2.60;;;20.10;40.70;;;;;;5056818;28;20462;-68
2023/05/18 11:45:55;;;;;;;5.73;2.77;;;20.00;40.70;;;;;;5080409;28;20438;-68
2023/05/18 11:48:23;;;;;;;5.30;2.70;;;19.80;43.10;;;;;;5082430;28;20477;-68
2023/05/18 11:50:53;;;;;;;4.90;2.47;;;19.60;43.90;;;;;;5080862;28;20802;-69
2023/05/18 11:53:22;;;;;;;5.23;2.37;;;19.50;43.90;;;;;;5084173;28;20803;-68
2023/05/18 11:55:53;;;;;;;5.00;2.70;;;19.30;43.60;;;;;;5083512;28;20843;-68
2023/05/18 11:58:23;;;;;;;4.43;2.93;;;19.20;43.60;;;;;;5085825;28;20907;-67
2023/05/18 12:00:51;;;;;;;5.87;2.60;;;19.10;44.30;;;;;;5085051;28;20570;-68
2023/05/18 12:03:19;;;;;;;4.40;2.47;;;18.90;45.90;;;;;;5085290;28;20486;-68
2023/05/18 12:05:48;;;;;;;10.63;2.90;;;18.90;47.00;;;;;;5084925;28;20917;-67
2023/05/18 12:08:17;;;;;;;6.27;3.43;;;19.00;46.00;;;;;;5084088;28;20524;-68
2023/05/18 12:10:46;;;;;;;6.43;2.50;;;19.00;45.50;;;;;;5083480;28;20432;-68
2023/05/18 12:13:16;;;;;;;5.60;2.80;;;19.00;46.00;;;;;;5086284;28;20443;-68
2023/05/18 12:15:48;;;;;;;5.20;2.50;;;18.90;44.60;;;;;;5086609;28;20978;-67
2023/05/18 12:18:18;;;;;;;6.70;2.50;;;18.80;45.20;;;;;;5084117;28;20476;-68
2023/05/18 12:20:50;;;;;;;6.73;2.60;;;18.60;45.90;;;;;;5087233;28;20533;-67
2023/05/18 12:23:17;;;;;;;3.83;2.17;;;18.60;47.20;;;;;;5085442;28;20544;-67
2023/05/18 12:25:45;;;;;;;8.83;2.30;;;18.70;45.60;;;;;;5083493;28;20463;-67
2023/05/18 12:28:18;;;;;;;5.00;2.40;;;18.70;45.50;;;;;;5086307;28;20482;-68
2023/05/18 12:30:45;;;;;;;5.33;2.63;;;18.70;44.50;;;;;;5085603;28;20431;-68
2023/05/18 12:33:12;;;;;;;6.73;2.60;;;18.70;46.40;;;;;;5085623;28;20944;-68
2023/05/18 12:35:44;;;;;;;4.70;2.30;;;18.80;47.00;;;;;;5087003;28;20529;-68
2023/05/18 12:38:11;;;;;;;4.60;2.57;;;18.90;46.40;;;;;;5084007;28;20493;-68
2023/05/18 12:40:45;;;;;;;5.50;2.47;;;18.90;45.70;;;;;;5087429;28;20560;-68
2023/05/18 12:43:12;;;;;;;3.70;2.40;;;18.90;45.40;;;;;;5085207;28;20905;-68
2023/05/18 12:45:43;;;;;;;5.20;2.63;;;18.80;44.90;;;;;;5090224;28;20445;-67
2023/05/18 12:48:12;;;;;;;7.20;2.67;;;18.80;46.50;;;;;;5088663;28;20463;-68
2023/05/18 12:50:46;;;;;;;6.60;2.93;;;19.00;46.30;;;;;;5085251;28;20481;-68
2023/05/18 12:53:13;;;;;;;4.27;2.60;;;19.10;45.80;;;;;;5084598;28;20471;-68
2023/05/18 12:55:40;;;;;;;7.50;2.57;;;19.10;46.10;;;;;;5086831;28;20482;-68
2023/05/18 12:58:14;;;;;;;6.13;2.80;;;19.10;46.30;;;;;;5085070;28;20484;-68
2023/05/18 13:00:44;;;;;;;5.23;2.33;;;19.20;45.90;;;;;;5086214;28;20566;-68